createdAt,value
2022-07-27T00:00:32.890Z,0.50
2022-07-27T00:05:35.082Z,0.80
2022-07-27T00:10:37.548Z,1.08
2022-07-27T00:15:39.652Z,0.90
2022-07-27T00:20:41.898Z,1.10
2022-07-27T00:25:43.954Z,1.00
2022-07-27T00:30:46.111Z,1.00
2022-07-27T00:35:48.184Z,0.90
2022-07-27T00:40:50.251Z,1.10
2022-07-27T00:45:52.383Z,0.80
2022-07-27T00:50:55.456Z,0.85
2022-07-27T00:55:57.611Z,0.80
2022-07-27T01:01:00.001Z,0.98
2022-07-27T01:06:02.328Z,0.70
2022-07-27T01:11:05.084Z,1.00
2022-07-27T01:16:07.747Z,1.00
2022-07-27T01:21:09.923Z,0.70
2022-07-27T01:26:11.956Z,0.80
2022-07-27T01:31:14.025Z,1.00
2022-07-27T01:36:16.706Z,1.15
2022-07-27T01:41:18.881Z,0.93
2022-07-27T01:46:21.217Z,1.00
2022-07-27T01:51:23.323Z,1.08
2022-07-27T01:56:25.569Z,0.90
2022-07-27T02:01:27.793Z,1.00
2022-07-27T02:06:29.869Z,0.88
2022-07-27T02:11:50.574Z,1.05
2022-07-27T02:16:52.675Z,0.98
2022-07-27T02:21:55.438Z,0.70
2022-07-27T02:26:57.505Z,1.10
2022-07-27T02:31:59.655Z,1.00
2022-07-27T02:37:01.764Z,0.90
2022-07-27T02:42:04.249Z,0.68
2022-07-27T02:47:06.445Z,0.82
2022-07-27T02:52:08.583Z,0.70
2022-07-27T02:57:10.714Z,1.00
2022-07-27T03:02:12.750Z,0.60
2022-07-27T03:07:14.748Z,0.80
2022-07-27T03:12:16.759Z,1.00
2022-07-27T03:17:18.956Z,1.08
2022-07-27T03:22:21.004Z,1.00
2022-07-27T03:27:22.989Z,1.20
2022-07-27T03:32:25.220Z,0.82
2022-07-27T03:37:27.445Z,0.98
2022-07-27T03:42:29.476Z,1.48
2022-07-27T03:47:31.558Z,1.02
2022-07-27T03:52:33.623Z,0.77
2022-07-27T03:57:35.710Z,1.23
2022-07-27T04:02:38.511Z,1.13
2022-07-27T04:07:41.429Z,1.10
2022-07-27T04:12:43.537Z,1.20
2022-07-27T04:17:56.469Z,1.10
2022-07-27T04:22:59.549Z,0.82
2022-07-27T04:28:01.705Z,0.93
2022-07-27T04:33:05.136Z,1.20
2022-07-27T04:38:07.266Z,0.93
2022-07-27T04:43:09.281Z,1.40
2022-07-27T04:48:11.696Z,1.02
2022-07-27T04:53:14.516Z,1.15
2022-07-27T04:58:16.597Z,1.23
2022-07-27T05:03:18.686Z,1.23
2022-07-27T05:08:21.102Z,1.00
2022-07-27T05:13:23.131Z,1.13
2022-07-27T05:18:25.777Z,1.25
2022-07-27T05:23:27.911Z,1.35
2022-07-27T05:28:30.218Z,1.40
2022-07-27T05:33:32.844Z,1.90
2022-07-27T05:38:39.263Z,2.03
2022-07-27T05:43:41.397Z,2.17
2022-07-27T05:48:43.619Z,2.22
2022-07-27T05:53:45.779Z,1.60
2022-07-27T05:58:47.888Z,2.33
2022-07-27T06:03:49.960Z,2.03
2022-07-27T06:08:52.153Z,2.15
2022-07-27T06:13:55.891Z,2.00
2022-07-27T06:18:58.026Z,1.92
2022-07-27T06:24:00.076Z,1.02
2022-07-27T06:29:02.195Z,0.70
2022-07-27T06:34:11.502Z,1.27
2022-07-27T06:39:14.621Z,1.35
2022-07-27T06:44:17.044Z,0.95
2022-07-27T06:49:19.105Z,1.40
2022-07-27T06:54:21.425Z,2.10
2022-07-27T06:59:23.469Z,0.88
2022-07-27T07:04:25.547Z,1.00
2022-07-27T07:09:28.611Z,0.80
2022-07-27T07:14:30.721Z,1.05
2022-07-27T07:19:32.806Z,1.25
2022-07-27T07:24:34.855Z,1.88
2022-07-27T07:29:36.893Z,2.15
2022-07-27T07:34:39.028Z,1.10
2022-07-27T07:39:41.061Z,0.88
2022-07-27T07:44:43.265Z,1.00
2022-07-27T07:49:45.455Z,0.70
2022-07-27T07:54:47.558Z,0.68
2022-07-27T07:59:49.616Z,1.25
2022-07-27T08:04:51.800Z,1.02
2022-07-27T08:09:53.815Z,0.88
2022-07-27T08:14:55.937Z,0.68
2022-07-27T08:19:58.068Z,0.60
2022-07-27T08:25:00.225Z,0.82
2022-07-27T08:30:02.647Z,0.80
2022-07-27T08:35:05.191Z,0.60
2022-07-27T08:45:30.463Z,0.50
2022-07-27T08:50:34.601Z,0.50
2022-07-27T08:55:39.692Z,0.47
2022-07-27T09:00:44.319Z,0.63
2022-07-27T09:05:49.090Z,0.63
2022-07-27T09:10:54.317Z,1.40
2022-07-27T09:16:19.297Z,3.17
2022-07-27T09:21:24.296Z,5.72
2022-07-27T09:26:33.979Z,1.50
2022-07-27T09:31:46.761Z,1.80
2022-07-27T09:36:52.199Z,0.85
2022-07-27T09:41:56.818Z,0.60
2022-07-27T09:46:59.448Z,0.70
2022-07-27T09:52:03.707Z,0.50
2022-07-27T09:57:05.970Z,0.70
2022-07-27T10:02:08.546Z,0.60
2022-07-27T10:07:13.702Z,0.60
2022-07-27T10:12:16.049Z,0.60
2022-07-27T10:17:20.912Z,0.60
2022-07-27T10:22:49.101Z,0.70
2022-07-27T10:28:17.423Z,0.40
2022-07-27T10:33:41.763Z,0.68
2022-07-27T10:38:52.552Z,0.40
2022-07-27T10:44:21.328Z,0.47
2022-07-27T10:49:26.232Z,0.43
2022-07-27T10:54:34.459Z,0.40
2022-07-27T11:00:07.018Z,0.47
2022-07-27T11:05:04.113Z,0.47
2022-07-27T11:10:06.513Z,0.50
2022-07-27T11:15:10.336Z,0.70
2022-07-27T11:20:13.949Z,0.43
2022-07-27T11:25:16.107Z,0.50
2022-07-27T11:30:26.136Z,0.40
2022-07-27T11:35:28.292Z,0.40
2022-07-27T11:40:59.875Z,0.30
2022-07-27T11:46:17.023Z,0.50
2022-07-27T11:51:19.541Z,0.55
2022-07-27T11:56:23.423Z,0.40
2022-07-27T12:01:35.041Z,0.40
2022-07-27T12:06:38.941Z,0.65
2022-07-27T12:11:50.176Z,0.30
2022-07-27T12:16:52.322Z,0.40
2022-07-27T12:21:55.210Z,0.68
2022-07-27T12:27:14.590Z,0.50
2022-07-27T12:32:17.714Z,0.38
2022-07-27T12:37:19.753Z,0.80
2022-07-27T12:42:32.844Z,0.50
2022-07-27T12:47:40.727Z,0.50
2022-07-27T12:52:49.116Z,0.50
2022-07-27T12:57:56.153Z,0.70
2022-07-27T13:02:59.978Z,0.40
2022-07-27T13:08:06.321Z,0.40
2022-07-27T13:13:09.208Z,0.60
2022-07-27T13:18:11.233Z,0.60
2022-07-27T13:23:13.510Z,0.60
2022-07-27T13:28:15.657Z,0.45
2022-07-27T13:33:17.699Z,0.40
2022-07-27T13:38:19.797Z,0.50
2022-07-27T13:43:23.869Z,0.40
2022-07-27T13:48:25.947Z,0.57
2022-07-27T13:53:28.394Z,0.45
2022-07-27T13:58:30.446Z,0.50
2022-07-27T14:03:32.552Z,0.65
2022-07-27T14:08:34.701Z,0.60
2022-07-27T14:13:36.842Z,0.47
2022-07-27T14:18:39.601Z,0.50
2022-07-27T14:23:42.175Z,0.70
2022-07-27T14:28:44.910Z,0.57
2022-07-27T14:33:47.053Z,0.55
2022-07-27T14:38:49.150Z,0.60
2022-07-27T14:43:51.407Z,0.50
2022-07-27T14:49:08.959Z,0.40
2022-07-27T14:54:11.040Z,0.32
2022-07-27T14:59:13.493Z,0.30
2022-07-27T15:04:15.809Z,0.60
2022-07-27T15:09:17.932Z,0.63
2022-07-27T15:14:23.122Z,0.65
2022-07-27T15:19:25.389Z,0.70
2022-07-27T15:24:27.584Z,0.70
2022-07-27T15:29:29.990Z,0.60
2022-07-27T15:34:32.596Z,0.43
2022-07-27T15:39:39.679Z,0.47
2022-07-27T15:44:41.860Z,0.40
2022-07-27T15:49:47.408Z,0.43
2022-07-27T15:54:49.471Z,0.35
2022-07-27T15:59:51.602Z,0.40
2022-07-27T16:04:54.370Z,0.45
2022-07-27T16:09:56.749Z,0.30
2022-07-27T16:14:58.927Z,0.50
2022-07-27T16:20:01.039Z,0.35
2022-07-27T16:25:04.020Z,0.40
2022-07-27T16:30:06.508Z,0.50
2022-07-27T16:35:10.493Z,0.50
2022-07-27T16:40:12.907Z,0.30
2022-07-27T16:45:15.012Z,0.30
2022-07-27T16:50:17.215Z,0.43
2022-07-27T16:55:19.264Z,0.40
2022-07-27T17:00:24.857Z,0.50
2022-07-27T17:05:27.226Z,0.50
2022-07-27T17:10:29.450Z,0.50
2022-07-27T17:15:32.777Z,0.60
2022-07-27T17:20:36.004Z,0.45
2022-07-27T17:25:38.383Z,0.50
2022-07-27T17:30:40.403Z,0.50
2022-07-27T17:35:42.552Z,0.52
2022-07-27T17:40:48.267Z,0.45
2022-07-27T17:45:52.495Z,0.80
2022-07-27T17:50:54.822Z,0.52
2022-07-27T17:56:00.573Z,0.60
2022-07-27T18:01:03.043Z,0.55
2022-07-27T18:06:05.357Z,0.40
2022-07-27T18:11:13.404Z,0.52
2022-07-27T18:16:15.566Z,0.52
2022-07-27T18:21:18.041Z,0.50
2022-07-27T18:26:21.213Z,0.40
2022-07-27T18:31:27.817Z,0.50
2022-07-27T18:36:29.968Z,0.57
2022-07-27T18:41:32.215Z,0.50
2022-07-27T18:46:34.282Z,0.50
2022-07-27T18:51:37.187Z,0.90
2022-07-27T18:56:40.319Z,0.47
2022-07-27T19:01:42.581Z,0.40
2022-07-27T19:06:45.038Z,0.60
2022-07-27T19:11:48.328Z,0.50
2022-07-27T19:16:54.431Z,0.50
2022-07-27T19:21:56.667Z,0.60
2022-07-27T19:26:58.691Z,0.65
2022-07-27T19:32:00.684Z,0.45
2022-07-27T19:37:02.782Z,0.80
2022-07-27T19:42:04.991Z,0.70
2022-07-27T19:47:07.009Z,0.80
2022-07-27T19:52:09.155Z,0.50
2022-07-27T19:57:11.546Z,0.68
2022-07-27T20:02:16.849Z,0.88
2022-07-27T20:07:19.027Z,0.65
2022-07-27T20:12:21.554Z,0.77
2022-07-27T20:17:23.598Z,0.80
2022-07-27T20:22:25.632Z,0.60
2022-07-27T20:27:30.466Z,0.77
2022-07-27T20:32:32.573Z,0.60
2022-07-27T20:37:34.773Z,1.00
2022-07-27T20:42:37.314Z,1.70
2022-07-27T20:47:43.007Z,0.85
2022-07-27T20:52:45.267Z,1.05
2022-07-27T20:57:47.384Z,1.10
2022-07-27T21:02:49.735Z,0.90
2022-07-27T21:07:55.054Z,1.10
2022-07-27T21:12:59.835Z,0.90
2022-07-27T21:18:02.386Z,0.70
2022-07-27T21:23:23.556Z,0.73
2022-07-27T21:28:25.705Z,0.93
2022-07-27T21:33:27.970Z,0.93
2022-07-27T21:38:29.989Z,1.00
2022-07-27T21:43:32.964Z,1.15
2022-07-27T21:48:35.040Z,0.90
2022-07-27T21:53:37.162Z,0.82
2022-07-27T21:58:40.016Z,0.98
2022-07-27T22:03:43.391Z,0.80
2022-07-27T22:08:46.182Z,0.80
2022-07-27T22:13:48.224Z,0.90
2022-07-27T22:18:50.324Z,1.02
2022-07-27T22:23:52.391Z,1.27
2022-07-27T22:28:54.566Z,0.88
2022-07-27T22:33:56.684Z,0.75
2022-07-27T22:38:58.926Z,1.33
2022-07-27T22:44:00.968Z,0.70
2022-07-27T22:49:04.174Z,1.00
2022-07-27T22:54:06.231Z,1.00
2022-07-27T22:59:08.288Z,0.75
2022-07-27T23:04:10.653Z,0.60
2022-07-27T23:09:13.111Z,0.80
2022-07-27T23:14:16.128Z,1.00
2022-07-27T23:19:18.504Z,0.88
2022-07-27T23:24:28.685Z,0.68
2022-07-27T23:29:31.470Z,0.70
2022-07-27T23:34:35.484Z,0.57
2022-07-27T23:39:37.577Z,0.70
2022-07-27T23:44:39.676Z,1.00
2022-07-27T23:49:41.726Z,0.70
2022-07-27T23:54:43.764Z,0.60
2022-07-27T23:59:45.833Z,0.60
